createdAt,value
2024-02-29T04:55:44.411Z,-24.00
2024-02-29T04:55:49.789Z,-26.00
2024-02-29T04:55:55.121Z,-24.00
2024-02-29T04:56:00.436Z,-26.00
2024-02-29T04:56:05.769Z,-27.00
2024-02-29T04:56:11.110Z,-26.00
2024-02-29T04:56:44.988Z,-26.00
2024-02-29T04:56:51.682Z,-26.00
2024-02-29T04:56:58.379Z,-26.00
2024-02-29T04:57:01.781Z,-26.00
2024-02-29T04:57:08.472Z,-26.00
2024-02-29T04:57:11.817Z,-26.00
2024-02-29T04:57:45.054Z,-26.00
2024-02-29T04:57:51.740Z,-25.00
2024-02-29T04:57:58.437Z,-26.00
2024-02-29T04:58:01.828Z,-26.00
2024-02-29T04:58:08.571Z,-26.00
2024-02-29T04:58:11.993Z,-25.00
2024-02-29T05:55:44.240Z,-26.00
2024-02-29T05:55:49.560Z,-28.00
2024-02-29T05:55:54.897Z,-27.00
2024-02-29T05:56:00.237Z,-26.00
2024-02-29T05:56:05.584Z,-27.00
2024-02-29T05:56:10.920Z,-26.00
2024-02-29T05:56:45.539Z,-26.00
2024-02-29T05:56:52.206Z,-27.00
2024-02-29T05:56:55.548Z,-27.00
2024-02-29T05:57:05.324Z,-27.00
2024-02-29T05:57:10.506Z,-26.00
2024-02-29T05:57:13.828Z,-26.00
2024-02-29T05:57:47.094Z,-27.00
2024-02-29T05:57:53.762Z,-26.00
2024-02-29T05:57:57.175Z,-27.00
2024-02-29T05:58:03.863Z,-28.00
2024-02-29T05:58:10.600Z,-27.00
2024-02-29T05:58:14.000Z,-26.00
2024-02-29T06:55:44.041Z,-27.00
2024-02-29T06:55:49.367Z,-27.00
2024-02-29T06:55:54.698Z,-28.00
2024-02-29T06:56:00.040Z,-26.00
2024-02-29T06:56:05.504Z,-26.00
2024-02-29T06:56:10.877Z,-26.00
2024-02-29T06:56:44.191Z,-27.00
2024-02-29T06:56:50.853Z,-28.00
2024-02-29T06:56:57.673Z,-26.00
2024-02-29T06:57:01.013Z,-26.00
2024-02-29T06:57:07.650Z,-27.00
2024-02-29T06:57:10.980Z,-26.00
2024-02-29T06:57:47.546Z,-27.00
2024-02-29T06:57:50.905Z,-28.00
2024-02-29T06:58:00.956Z,-27.00
2024-02-29T06:58:09.181Z,-28.00
2024-02-29T06:58:12.594Z,-26.00
2024-02-29T06:58:16.009Z,-26.00
2024-02-29T07:55:43.890Z,-25.00
2024-02-29T07:55:49.234Z,-28.00
2024-02-29T07:55:54.545Z,-26.00
2024-02-29T07:55:59.876Z,-28.00
2024-02-29T07:56:05.217Z,-28.00
2024-02-29T07:56:10.551Z,-27.00
2024-02-29T07:56:44.363Z,-28.00
2024-02-29T07:56:51.055Z,-26.00
2024-02-29T07:56:57.764Z,-27.00
2024-02-29T07:57:01.109Z,-28.00
2024-02-29T07:57:07.774Z,-26.00
2024-02-29T07:57:11.109Z,-27.00
2024-02-29T07:57:47.632Z,-27.00
2024-02-29T07:57:54.275Z,-27.00
2024-02-29T07:58:01.011Z,-28.00
2024-02-29T07:58:04.445Z,-27.00
2024-02-29T07:58:07.993Z,-27.00
2024-02-29T07:58:11.432Z,-26.00
2024-02-29T08:55:43.729Z,-23.00
2024-02-29T08:55:49.045Z,-24.00
2024-02-29T08:55:52.349Z,-22.00
2024-02-29T08:55:57.741Z,-24.00
2024-02-29T08:56:01.064Z,-24.00
2024-02-29T08:56:04.405Z,-24.00
2024-02-29T08:56:44.958Z,-25.00
2024-02-29T08:56:51.606Z,-25.00
2024-02-29T08:56:54.968Z,-24.00
2024-02-29T08:56:58.330Z,-24.00
2024-02-29T08:57:01.716Z,-24.00
2024-02-29T08:57:05.035Z,-24.00
2024-02-29T08:57:46.697Z,-23.00
2024-02-29T08:57:53.422Z,-24.00
2024-02-29T08:57:56.794Z,-22.00
2024-02-29T08:58:00.164Z,-24.00
2024-02-29T08:58:03.545Z,-23.00
2024-02-29T08:58:07.022Z,-24.00
2024-02-29T09:55:41.587Z,-20.00
2024-02-29T09:55:46.934Z,-20.00
2024-02-29T09:55:50.268Z,-21.00
2024-02-29T09:55:55.645Z,-19.00
2024-02-29T09:55:58.978Z,-20.00
2024-02-29T09:56:02.320Z,-20.00
2024-02-29T09:56:42.255Z,-20.00
2024-02-29T09:56:49.016Z,-18.00
2024-02-29T09:56:52.385Z,-20.00
2024-02-29T09:56:55.716Z,-19.00
2024-02-29T09:56:59.067Z,-20.00
2024-02-29T09:57:02.462Z,-17.00
2024-02-29T09:57:42.454Z,-19.00
2024-02-29T09:57:49.287Z,-20.00
2024-02-29T09:57:52.724Z,-20.00
2024-02-29T09:57:56.057Z,-20.00
2024-02-29T09:57:59.443Z,-19.00
2024-02-29T09:58:02.807Z,-20.00
2024-02-29T10:55:41.274Z,-22.00
2024-02-29T10:55:44.593Z,-22.00
2024-02-29T10:55:47.994Z,-21.00
2024-02-29T10:55:51.335Z,-22.00
2024-02-29T10:55:54.691Z,-22.00
2024-02-29T10:55:58.054Z,-23.00
2024-02-29T10:56:43.243Z,-23.00
2024-02-29T10:56:46.631Z,-23.00
2024-02-29T10:56:49.981Z,-24.00
2024-02-29T10:56:53.304Z,-20.00
2024-02-29T10:56:56.641Z,-22.00
2024-02-29T10:57:00.001Z,-23.00
2024-02-29T10:57:43.229Z,-24.00
2024-02-29T10:57:49.898Z,-25.00
2024-02-29T10:57:53.272Z,-24.00
2024-02-29T10:57:56.661Z,-23.00
2024-02-29T10:58:00.024Z,-24.00
2024-02-29T10:58:03.402Z,-25.00
2024-02-29T11:55:43.094Z,-33.00
2024-02-29T11:55:58.787Z,-35.00
2024-02-29T11:56:02.911Z,-35.00
2024-02-29T11:56:11.007Z,-35.00
2024-02-29T11:56:15.987Z,-33.00
2024-02-29T11:56:20.152Z,-34.00
2024-02-29T11:56:43.476Z,-33.00
2024-02-29T11:56:50.133Z,-35.00
2024-02-29T11:56:56.810Z,-33.00
2024-02-29T11:57:06.818Z,-35.00
2024-02-29T11:57:13.470Z,-35.00
2024-02-29T11:57:23.481Z,-33.00
2024-02-29T11:57:43.720Z,-35.00
2024-02-29T11:57:50.519Z,-33.00
2024-02-29T11:57:57.235Z,-34.00
2024-02-29T11:58:07.311Z,-33.00
2024-02-29T11:58:14.085Z,-35.00
2024-02-29T12:55:43.006Z,-36.00
2024-02-29T12:55:48.412Z,-35.00
2024-02-29T12:55:53.729Z,-35.00
2024-02-29T12:55:59.083Z,-35.00
2024-02-29T12:56:02.409Z,-33.00
2024-02-29T12:56:07.818Z,-35.00
2024-02-29T12:56:45.167Z,-34.00
2024-02-29T12:56:48.697Z,-34.00
2024-02-29T12:56:55.417Z,-33.00
2024-02-29T12:57:02.046Z,-35.00
2024-02-29T12:57:07.105Z,-35.00
2024-02-29T12:57:11.536Z,-35.00
2024-02-29T12:57:45.960Z,-35.00
2024-02-29T12:57:49.333Z,-33.00
2024-02-29T12:57:56.075Z,-35.00
2024-02-29T12:58:02.773Z,-33.00
2024-02-29T12:58:06.170Z,-35.00
2024-02-29T12:58:12.966Z,-34.00
2024-02-29T13:55:44.392Z,-34.00
2024-02-29T13:55:51.148Z,-36.00
2024-02-29T13:55:56.496Z,-35.00
2024-02-29T13:56:01.901Z,-35.00
2024-02-29T13:56:07.256Z,-35.00
2024-02-29T13:56:12.587Z,-35.00
2024-02-29T13:56:45.211Z,-33.00
2024-02-29T13:56:51.895Z,-35.00
2024-02-29T13:56:58.612Z,-35.00
2024-02-29T13:57:01.976Z,-35.00
2024-02-29T13:57:08.605Z,-35.00
2024-02-29T13:57:15.273Z,-34.00
2024-02-29T13:57:48.480Z,-35.00
2024-02-29T13:57:55.195Z,-36.00
2024-02-29T13:58:01.897Z,-35.00
2024-02-29T13:58:05.256Z,-35.00
2024-02-29T13:58:08.630Z,-36.00
2024-02-29T13:58:15.295Z,-35.00
2024-02-29T14:55:42.716Z,-36.00
2024-02-29T14:55:48.058Z,-37.00
2024-02-29T14:55:53.385Z,-38.00
2024-02-29T14:55:58.751Z,-37.00
2024-02-29T14:56:04.112Z,-37.00
2024-02-29T14:56:09.459Z,-36.00
2024-02-29T14:56:46.042Z,-38.00
2024-02-29T14:56:49.366Z,-37.00
2024-02-29T14:56:56.051Z,-36.00
2024-02-29T14:56:59.602Z,-37.00
2024-02-29T14:57:06.278Z,-36.00
2024-02-29T14:57:09.601Z,-37.00
2024-02-29T14:57:46.159Z,-37.00
2024-02-29T14:57:49.530Z,-36.00
2024-02-29T14:57:56.349Z,-37.00
2024-02-29T14:57:59.742Z,-37.00
2024-02-29T14:58:06.481Z,-37.00
2024-02-29T14:58:09.889Z,-38.00
2024-02-29T15:55:42.437Z,-39.00
2024-02-29T15:55:47.745Z,-39.00
2024-02-29T15:55:53.085Z,-39.00
2024-02-29T15:56:00.097Z,-40.00
2024-02-29T15:56:06.224Z,-39.00
2024-02-29T15:56:11.602Z,-40.00
2024-02-29T15:56:46.948Z,-39.00
2024-02-29T15:56:50.294Z,-40.00
2024-02-29T15:56:53.625Z,-38.00
2024-02-29T15:57:00.322Z,-39.00
2024-02-29T15:57:06.978Z,-38.00
2024-02-29T15:57:13.617Z,-40.00
2024-02-29T15:57:50.150Z,-40.00
2024-02-29T15:57:53.532Z,-38.00
2024-02-29T15:57:57.135Z,-39.00
2024-02-29T15:58:00.627Z,-40.00
2024-02-29T15:58:07.318Z,-39.00
2024-02-29T15:58:13.993Z,-38.00
2024-02-29T16:55:42.279Z,-40.00
2024-02-29T16:55:47.805Z,-42.00
2024-02-29T16:55:53.146Z,-41.00
2024-02-29T16:55:58.489Z,-40.00
2024-02-29T16:56:03.826Z,-41.00
2024-02-29T16:56:09.166Z,-42.00
2024-02-29T16:56:46.506Z,-45.00
2024-02-29T16:56:51.937Z,-40.00
2024-02-29T16:56:55.276Z,-41.00
2024-02-29T16:57:00.661Z,-42.00
2024-02-29T16:57:03.949Z,-42.00
2024-02-29T16:57:09.287Z,-42.00
2024-02-29T16:57:49.153Z,-40.00
2024-02-29T16:57:52.525Z,-40.00
2024-02-29T16:57:55.894Z,-42.00
2024-02-29T16:58:02.620Z,-41.00
2024-02-29T16:58:06.814Z,-42.00
2024-02-29T16:58:10.246Z,-43.00
2024-02-29T17:55:42.084Z,-43.00
2024-02-29T17:55:47.403Z,-41.00
2024-02-29T17:55:52.783Z,-43.00
2024-02-29T17:55:58.315Z,-45.00
2024-02-29T17:56:03.666Z,-44.00
2024-02-29T17:56:09.029Z,-44.00
2024-02-29T17:56:46.296Z,-43.00
2024-02-29T17:56:51.659Z,-44.00
2024-02-29T17:56:57.003Z,-43.00
2024-02-29T17:57:02.385Z,-44.00
2024-02-29T17:57:05.769Z,-41.00
2024-02-29T17:57:09.053Z,-42.00
2024-02-29T17:57:48.773Z,-44.00
2024-02-29T17:57:52.162Z,-44.00
2024-02-29T17:57:58.866Z,-42.00
2024-02-29T17:58:07.105Z,-44.00
2024-02-29T17:58:10.454Z,-42.00
2024-02-29T17:58:13.852Z,-42.00
2024-02-29T18:55:41.819Z,-43.00
2024-02-29T18:55:47.196Z,-44.00
2024-02-29T18:55:52.526Z,-44.00
2024-02-29T18:55:57.886Z,-44.00
2024-02-29T18:56:03.202Z,-44.00
2024-02-29T18:56:08.543Z,-42.00
2024-02-29T18:56:45.640Z,-44.00
2024-02-29T18:56:50.972Z,-44.00
2024-02-29T18:56:56.311Z,-45.00
2024-02-29T18:56:59.659Z,-45.00
2024-02-29T18:57:05.019Z,-42.00
2024-02-29T18:57:10.447Z,-44.00
2024-02-29T18:57:48.938Z,-46.00
2024-02-29T18:57:52.313Z,-42.00
2024-02-29T18:57:59.002Z,-42.00
2024-02-29T18:58:02.373Z,-46.00
2024-02-29T18:58:05.787Z,-44.00
2024-02-29T18:58:12.481Z,-43.00
2024-02-29T19:55:41.728Z,-44.00
2024-02-29T19:55:47.098Z,-46.00
2024-02-29T19:55:52.454Z,-44.00
2024-02-29T19:55:57.791Z,-45.00
2024-02-29T19:56:03.107Z,-45.00
2024-02-29T19:56:08.442Z,-45.00
2024-02-29T19:56:45.750Z,-45.00
2024-02-29T19:56:51.094Z,-46.00
2024-02-29T19:56:56.436Z,-46.00
2024-02-29T19:57:01.772Z,-46.00
2024-02-29T19:57:05.122Z,-46.00
2024-02-29T19:57:11.754Z,-46.00
2024-02-29T19:57:49.137Z,-46.00
2024-02-29T19:57:52.676Z,-48.00
2024-02-29T19:57:59.463Z,-44.00
2024-02-29T19:58:02.841Z,-46.00
2024-02-29T19:58:06.335Z,-46.00
2024-02-29T19:58:13.048Z,-44.00
2024-02-29T20:55:41.525Z,-47.00
2024-02-29T20:55:46.853Z,-46.00
2024-02-29T20:55:52.204Z,-49.00
2024-02-29T20:55:57.562Z,-46.00
2024-02-29T20:56:02.930Z,-48.00
2024-02-29T20:56:08.252Z,-48.00
2024-02-29T20:56:45.188Z,-46.00
2024-02-29T20:56:50.515Z,-47.00
2024-02-29T20:56:55.858Z,-46.00
2024-02-29T20:57:01.188Z,-47.00
2024-02-29T20:57:06.564Z,-46.00
2024-02-29T20:57:11.885Z,-46.00
2024-02-29T20:57:45.313Z,-46.00
2024-02-29T20:57:51.972Z,-47.00
2024-02-29T20:57:58.632Z,-46.00
2024-02-29T20:58:02.038Z,-46.00
2024-02-29T20:58:08.772Z,-48.00
2024-02-29T20:58:12.138Z,-46.00
